Terminal Aerodrome Forecast
Issued by NWS

Home | Current Version | Previous Version | Text Only | Print | Product List | Glossary On
Versions: 1 2 3 4 5 6 7 8 9 10 11 12 13 14 15 16 17 18 19 20 21 22 23 24 25 26
547
FTUS46 KMTR 251120
TAFSFO
TAF
KSFO 251120Z 2512/2618 27010KT P6SM SCT010 OVC015
     FM251800 27011KT P6SM SCT018 SCT035
      TEMPO 2518/2520 BKN020
     FM252000 27018G26KT P6SM FEW025 SCT040
     FM260200 28012KT P6SM SCT030
      TEMPO 2602/2606 BKN018
     FM260600 28010KT P6SM OVC015
     FM261759 28009KT P6SM SCT020=

USA.gov is the U.S. government's official web portal to all federal, state and local government web resources and services.